sensor_id;sensor_type;location;lat;lon;timestamp;P1;durP1;ratioP1;P2;durP2;ratioP2
43226;SDS011;28839;52.404;9.808;2023-07-16T00:03:55;3.50;;;2.00;;
43226;SDS011;28839;52.404;9.808;2023-07-16T00:10:49;3.75;;;2.53;;
43226;SDS011;28839;52.404;9.808;2023-07-16T00:17:44;4.75;;;2.12;;
43226;SDS011;28839;52.404;9.808;2023-07-16T00:24:38;3.20;;;2.03;;
43226;SDS011;28839;52.404;9.808;2023-07-16T00:31:32;2.40;;;1.83;;
43226;SDS011;28839;52.404;9.808;2023-07-16T00:38:27;2.67;;;1.77;;
43226;SDS011;28839;52.404;9.808;2023-07-16T00:45:22;2.87;;;2.00;;
43226;SDS011;28839;52.404;9.808;2023-07-16T00:52:16;12.00;;;2.47;;
43226;SDS011;28839;52.404;9.808;2023-07-16T00:59:13;6.12;;;2.15;;
43226;SDS011;28839;52.404;9.808;2023-07-16T01:06:10;5.93;;;2.30;;
43226;SDS011;28839;52.404;9.808;2023-07-16T01:13:07;4.22;;;2.05;;
43226;SDS011;28839;52.404;9.808;2023-07-16T01:20:02;8.15;;;2.40;;
43226;SDS011;28839;52.404;9.808;2023-07-16T01:34:15;3.15;;;2.00;;
43226;SDS011;28839;52.404;9.808;2023-07-16T01:41:10;2.67;;;1.80;;
43226;SDS011;28839;52.404;9.808;2023-07-16T01:48:05;2.62;;;2.08;;
43226;SDS011;28839;52.404;9.808;2023-07-16T01:55:09;2.20;;;1.93;;
43226;SDS011;28839;52.404;9.808;2023-07-16T02:02:03;2.92;;;2.10;;
43226;SDS011;28839;52.404;9.808;2023-07-16T02:08:57;5.85;;;2.12;;
43226;SDS011;28839;52.404;9.808;2023-07-16T02:15:52;4.40;;;1.90;;
43226;SDS011;28839;52.404;9.808;2023-07-16T02:27:23;4.53;;;2.35;;
43226;SDS011;28839;52.404;9.808;2023-07-16T02:34:17;2.70;;;1.77;;
43226;SDS011;28839;52.404;9.808;2023-07-16T02:41:11;4.85;;;2.05;;
43226;SDS011;28839;52.404;9.808;2023-07-16T02:48:06;2.72;;;2.00;;
43226;SDS011;28839;52.404;9.808;2023-07-16T02:55:00;2.65;;;1.85;;
43226;SDS011;28839;52.404;9.808;2023-07-16T03:01:54;5.47;;;2.35;;
43226;SDS011;28839;52.404;9.808;2023-07-16T03:08:49;4.53;;;2.20;;
43226;SDS011;28839;52.404;9.808;2023-07-16T03:15:43;5.68;;;2.25;;
43226;SDS011;28839;52.404;9.808;2023-07-16T03:22:37;4.78;;;2.58;;
43226;SDS011;28839;52.404;9.808;2023-07-16T03:29:33;3.47;;;2.22;;
43226;SDS011;28839;52.404;9.808;2023-07-16T03:36:27;5.57;;;2.33;;
43226;SDS011;28839;52.404;9.808;2023-07-16T03:43:21;4.85;;;2.28;;
43226;SDS011;28839;52.404;9.808;2023-07-16T03:50:16;2.70;;;2.08;;
43226;SDS011;28839;52.404;9.808;2023-07-16T03:57:10;5.85;;;2.40;;
43226;SDS011;28839;52.404;9.808;2023-07-16T04:04:04;7.82;;;2.95;;
43226;SDS011;28839;52.404;9.808;2023-07-16T04:10:59;5.40;;;2.62;;
43226;SDS011;28839;52.404;9.808;2023-07-16T04:17:52;4.87;;;2.65;;
43226;SDS011;28839;52.404;9.808;2023-07-16T04:24:46;8.18;;;2.70;;
43226;SDS011;28839;52.404;9.808;2023-07-16T04:31:41;5.10;;;2.58;;
43226;SDS011;28839;52.404;9.808;2023-07-16T04:38:35;3.50;;;2.72;;
43226;SDS011;28839;52.404;9.808;2023-07-16T04:45:29;6.78;;;2.83;;
43226;SDS011;28839;52.404;9.808;2023-07-16T04:52:24;5.37;;;2.80;;
43226;SDS011;28839;52.404;9.808;2023-07-16T04:59:18;5.85;;;2.50;;
43226;SDS011;28839;52.404;9.808;2023-07-16T05:06:12;4.80;;;2.65;;
43226;SDS011;28839;52.404;9.808;2023-07-16T05:13:07;4.07;;;2.35;;
43226;SDS011;28839;52.404;9.808;2023-07-16T05:20:01;4.22;;;2.60;;
43226;SDS011;28839;52.404;9.808;2023-07-16T05:26:56;3.37;;;2.25;;
43226;SDS011;28839;52.404;9.808;2023-07-16T05:33:51;3.72;;;2.28;;
43226;SDS011;28839;52.404;9.808;2023-07-16T05:40:44;4.55;;;2.10;;
43226;SDS011;28839;52.404;9.808;2023-07-16T05:47:38;3.85;;;2.20;;
43226;SDS011;28839;52.404;9.808;2023-07-16T05:54:33;2.17;;;1.70;;
43226;SDS011;28839;52.404;9.808;2023-07-16T06:01:27;6.62;;;2.30;;
43226;SDS011;28839;52.404;9.808;2023-07-16T06:08:21;3.75;;;2.40;;
43226;SDS011;28839;52.404;9.808;2023-07-16T06:15:18;4.22;;;2.25;;
43226;SDS011;28839;52.404;9.808;2023-07-16T06:22:12;4.80;;;2.10;;
43226;SDS011;28839;52.404;9.808;2023-07-16T06:29:05;9.02;;;1.98;;
43226;SDS011;28839;52.404;9.808;2023-07-16T06:36:00;7.47;;;2.25;;
43226;SDS011;28839;52.404;9.808;2023-07-16T06:42:54;2.83;;;1.87;;
43226;SDS011;28839;52.404;9.808;2023-07-16T06:49:48;4.68;;;1.90;;
43226;SDS011;28839;52.404;9.808;2023-07-16T06:56:43;4.43;;;2.30;;
43226;SDS011;28839;52.404;9.808;2023-07-16T07:03:37;3.67;;;1.77;;
43226;SDS011;28839;52.404;9.808;2023-07-16T07:17:26;4.00;;;2.47;;
43226;SDS011;28839;52.404;9.808;2023-07-16T07:24:20;4.65;;;2.08;;
43226;SDS011;28839;52.404;9.808;2023-07-16T07:38:08;5.60;;;2.70;;
43226;SDS011;28839;52.404;9.808;2023-07-16T07:45:02;7.07;;;2.80;;
43226;SDS011;28839;52.404;9.808;2023-07-16T07:51:58;4.00;;;2.20;;
43226;SDS011;28839;52.404;9.808;2023-07-16T07:58:53;6.93;;;2.83;;
43226;SDS011;28839;52.404;9.808;2023-07-16T08:05:47;7.03;;;2.95;;
43226;SDS011;28839;52.404;9.808;2023-07-16T08:12:41;9.02;;;3.10;;
43226;SDS011;28839;52.404;9.808;2023-07-16T08:19:37;8.25;;;3.20;;
43226;SDS011;28839;52.404;9.808;2023-07-16T08:26:31;7.55;;;3.33;;
43226;SDS011;28839;52.404;9.808;2023-07-16T08:33:25;5.55;;;2.78;;
43226;SDS011;28839;52.404;9.808;2023-07-16T08:40:20;4.43;;;2.42;;
43226;SDS011;28839;52.404;9.808;2023-07-16T08:47:14;6.55;;;2.62;;
43226;SDS011;28839;52.404;9.808;2023-07-16T08:54:08;5.30;;;2.60;;
43226;SDS011;28839;52.404;9.808;2023-07-16T09:01:04;4.10;;;2.47;;
43226;SDS011;28839;52.404;9.808;2023-07-16T09:07:59;3.97;;;2.50;;
43226;SDS011;28839;52.404;9.808;2023-07-16T09:14:53;4.85;;;2.20;;
43226;SDS011;28839;52.404;9.808;2023-07-16T09:21:49;3.62;;;2.33;;
43226;SDS011;28839;52.404;9.808;2023-07-16T09:28:43;4.18;;;2.28;;
43226;SDS011;28839;52.404;9.808;2023-07-16T09:35:41;4.80;;;3.10;;
43226;SDS011;28839;52.404;9.808;2023-07-16T09:42:38;4.68;;;2.55;;
43226;SDS011;28839;52.404;9.808;2023-07-16T09:49:33;3.87;;;2.42;;
43226;SDS011;28839;52.404;9.808;2023-07-16T09:56:27;5.60;;;3.10;;
43226;SDS011;28839;52.404;9.808;2023-07-16T10:03:28;4.22;;;2.67;;
43226;SDS011;28839;52.404;9.808;2023-07-16T10:10:24;5.93;;;2.83;;
43226;SDS011;28839;52.404;9.808;2023-07-16T10:17:20;2.90;;;2.30;;
43226;SDS011;28839;52.404;9.808;2023-07-16T10:24:17;5.12;;;2.70;;
43226;SDS011;28839;52.404;9.808;2023-07-16T10:31:17;5.72;;;2.47;;
43226;SDS011;28839;52.404;9.808;2023-07-16T10:38:13;5.05;;;3.00;;
43226;SDS011;28839;52.404;9.808;2023-07-16T10:45:09;4.35;;;2.20;;
43226;SDS011;28839;52.404;9.808;2023-07-16T10:52:03;4.03;;;2.33;;
43226;SDS011;28839;52.404;9.808;2023-07-16T10:58:57;4.32;;;3.30;;
43226;SDS011;28839;52.404;9.808;2023-07-16T11:05:53;4.30;;;2.78;;
43226;SDS011;28839;52.404;9.808;2023-07-16T11:12:50;3.97;;;2.87;;
43226;SDS011;28839;52.404;9.808;2023-07-16T11:19:45;4.32;;;2.72;;
43226;SDS011;28839;52.404;9.808;2023-07-16T11:26:50;5.00;;;3.00;;
43226;SDS011;28839;52.404;9.808;2023-07-16T11:47:33;3.85;;;2.87;;
43226;SDS011;28839;52.404;9.808;2023-07-16T11:54:27;4.20;;;2.65;;
43226;SDS011;28839;52.404;9.808;2023-07-16T12:01:21;5.45;;;3.20;;
43226;SDS011;28839;52.404;9.808;2023-07-16T12:08:16;8.20;;;4.87;;
43226;SDS011;28839;52.404;9.808;2023-07-16T12:15:10;5.62;;;3.37;;
43226;SDS011;28839;52.404;9.808;2023-07-16T12:22:04;5.75;;;3.12;;
43226;SDS011;28839;52.404;9.808;2023-07-16T12:28:59;4.68;;;2.80;;
43226;SDS011;28839;52.404;9.808;2023-07-16T12:35:55;5.72;;;3.12;;
43226;SDS011;28839;52.404;9.808;2023-07-16T12:42:52;3.83;;;2.92;;
43226;SDS011;28839;52.404;9.808;2023-07-16T12:49:47;6.72;;;2.75;;
43226;SDS011;28839;52.404;9.808;2023-07-16T12:56:41;5.05;;;3.00;;
43226;SDS011;28839;52.404;9.808;2023-07-16T13:03:35;5.45;;;2.83;;
43226;SDS011;28839;52.404;9.808;2023-07-16T13:10:30;5.70;;;2.95;;
43226;SDS011;28839;52.404;9.808;2023-07-16T13:17:24;5.30;;;3.20;;
43226;SDS011;28839;52.404;9.808;2023-07-16T13:24:18;6.50;;;3.30;;
43226;SDS011;28839;52.404;9.808;2023-07-16T13:31:13;3.62;;;2.50;;
43226;SDS011;28839;52.404;9.808;2023-07-16T13:38:07;4.55;;;2.78;;
43226;SDS011;28839;52.404;9.808;2023-07-16T13:45:01;3.03;;;2.72;;
43226;SDS011;28839;52.404;9.808;2023-07-16T13:51:56;3.62;;;2.65;;
43226;SDS011;28839;52.404;9.808;2023-07-16T13:58:50;4.20;;;2.78;;
43226;SDS011;28839;52.404;9.808;2023-07-16T14:05:46;3.70;;;2.85;;
43226;SDS011;28839;52.404;9.808;2023-07-16T14:12:41;5.60;;;2.83;;
43226;SDS011;28839;52.404;9.808;2023-07-16T14:19:35;3.75;;;3.05;;
43226;SDS011;28839;52.404;9.808;2023-07-16T14:26:29;4.05;;;2.85;;
43226;SDS011;28839;52.404;9.808;2023-07-16T14:33:24;5.95;;;3.80;;
43226;SDS011;28839;52.404;9.808;2023-07-16T14:40:18;8.45;;;4.00;;
43226;SDS011;28839;52.404;9.808;2023-07-16T14:47:11;6.85;;;3.60;;
43226;SDS011;28839;52.404;9.808;2023-07-16T14:54:07;4.35;;;3.12;;
43226;SDS011;28839;52.404;9.808;2023-07-16T15:01:01;5.87;;;3.40;;
43226;SDS011;28839;52.404;9.808;2023-07-16T15:07:59;4.85;;;3.40;;
43226;SDS011;28839;52.404;9.808;2023-07-16T15:14:54;6.00;;;3.87;;
43226;SDS011;28839;52.404;9.808;2023-07-16T15:21:48;5.97;;;3.80;;
43226;SDS011;28839;52.404;9.808;2023-07-16T15:28:42;4.82;;;4.32;;
43226;SDS011;28839;52.404;9.808;2023-07-16T15:35:38;5.72;;;3.85;;
43226;SDS011;28839;52.404;9.808;2023-07-16T15:42:32;6.55;;;3.45;;
43226;SDS011;28839;52.404;9.808;2023-07-16T15:49:26;9.32;;;3.92;;
43226;SDS011;28839;52.404;9.808;2023-07-16T15:56:22;4.62;;;3.30;;
43226;SDS011;28839;52.404;9.808;2023-07-16T16:03:16;5.00;;;3.15;;
43226;SDS011;28839;52.404;9.808;2023-07-16T16:10:09;5.28;;;2.62;;
43226;SDS011;28839;52.404;9.808;2023-07-16T16:17:05;4.87;;;3.30;;
43226;SDS011;28839;52.404;9.808;2023-07-16T16:23:59;6.70;;;2.62;;
43226;SDS011;28839;52.404;9.808;2023-07-16T16:30:53;4.70;;;2.70;;
43226;SDS011;28839;52.404;9.808;2023-07-16T16:37:48;5.03;;;2.42;;
43226;SDS011;28839;52.404;9.808;2023-07-16T16:44:42;9.18;;;3.17;;
43226;SDS011;28839;52.404;9.808;2023-07-16T16:51:36;8.30;;;2.72;;
43226;SDS011;28839;52.404;9.808;2023-07-16T16:58:31;5.22;;;2.90;;
43226;SDS011;28839;52.404;9.808;2023-07-16T17:05:25;5.53;;;2.70;;
43226;SDS011;28839;52.404;9.808;2023-07-16T17:12:18;4.60;;;3.12;;
43226;SDS011;28839;52.404;9.808;2023-07-16T17:19:13;4.15;;;3.00;;
43226;SDS011;28839;52.404;9.808;2023-07-16T17:26:07;5.87;;;2.80;;
43226;SDS011;28839;52.404;9.808;2023-07-16T17:33:01;5.50;;;3.08;;
43226;SDS011;28839;52.404;9.808;2023-07-16T17:39:56;5.78;;;3.47;;
43226;SDS011;28839;52.404;9.808;2023-07-16T17:46:50;4.87;;;3.45;;
43226;SDS011;28839;52.404;9.808;2023-07-16T17:53:44;7.35;;;3.33;;
43226;SDS011;28839;52.404;9.808;2023-07-16T18:00:39;6.45;;;3.62;;
43226;SDS011;28839;52.404;9.808;2023-07-16T18:07:33;6.00;;;3.22;;
43226;SDS011;28839;52.404;9.808;2023-07-16T18:14:26;6.93;;;3.58;;
43226;SDS011;28839;52.404;9.808;2023-07-16T18:21:23;7.32;;;3.65;;
43226;SDS011;28839;52.404;9.808;2023-07-16T18:28:18;3.75;;;2.92;;
43226;SDS011;28839;52.404;9.808;2023-07-16T18:35:12;5.25;;;3.42;;
43226;SDS011;28839;52.404;9.808;2023-07-16T18:42:08;4.80;;;3.67;;
43226;SDS011;28839;52.404;9.808;2023-07-16T18:49:01;8.02;;;3.92;;
43226;SDS011;28839;52.404;9.808;2023-07-16T18:55:56;8.23;;;4.00;;
43226;SDS011;28839;52.404;9.808;2023-07-16T19:09:45;5.43;;;3.15;;
43226;SDS011;28839;52.404;9.808;2023-07-16T19:23:33;7.50;;;3.47;;
43226;SDS011;28839;52.404;9.808;2023-07-16T19:30:27;5.62;;;3.28;;
43226;SDS011;28839;52.404;9.808;2023-07-16T19:44:16;6.87;;;4.43;;
43226;SDS011;28839;52.404;9.808;2023-07-16T19:51:10;7.32;;;3.70;;
43226;SDS011;28839;52.404;9.808;2023-07-16T20:04:59;5.30;;;3.70;;
43226;SDS011;28839;52.404;9.808;2023-07-16T20:11:53;6.28;;;3.85;;
43226;SDS011;28839;52.404;9.808;2023-07-16T20:25:42;7.75;;;3.67;;
43226;SDS011;28839;52.404;9.808;2023-07-16T20:32:36;8.10;;;3.87;;
43226;SDS011;28839;52.404;9.808;2023-07-16T20:39:32;7.95;;;3.33;;
43226;SDS011;28839;52.404;9.808;2023-07-16T20:46:29;5.72;;;3.40;;
43226;SDS011;28839;52.404;9.808;2023-07-16T20:53:25;4.80;;;3.25;;
43226;SDS011;28839;52.404;9.808;2023-07-16T21:00:19;6.53;;;4.10;;
43226;SDS011;28839;52.404;9.808;2023-07-16T21:07:15;6.62;;;3.97;;
43226;SDS011;28839;52.404;9.808;2023-07-16T21:14:09;7.15;;;3.85;;
43226;SDS011;28839;52.404;9.808;2023-07-16T21:21:03;6.80;;;3.97;;
43226;SDS011;28839;52.404;9.808;2023-07-16T21:27:59;10.75;;;6.43;;
43226;SDS011;28839;52.404;9.808;2023-07-16T21:34:56;7.90;;;4.37;;
43226;SDS011;28839;52.404;9.808;2023-07-16T21:41:50;7.75;;;3.85;;
43226;SDS011;28839;52.404;9.808;2023-07-16T21:48:45;7.20;;;4.68;;
43226;SDS011;28839;52.404;9.808;2023-07-16T21:55:39;5.53;;;4.18;;
43226;SDS011;28839;52.404;9.808;2023-07-16T22:09:28;9.20;;;4.93;;
43226;SDS011;28839;52.404;9.808;2023-07-16T22:16:22;8.35;;;4.35;;
43226;SDS011;28839;52.404;9.808;2023-07-16T22:23:17;7.07;;;4.40;;
43226;SDS011;28839;52.404;9.808;2023-07-16T22:30:14;6.82;;;4.68;;
43226;SDS011;28839;52.404;9.808;2023-07-16T22:37:07;7.37;;;4.65;;
43226;SDS011;28839;52.404;9.808;2023-07-16T22:44:01;9.85;;;4.70;;
43226;SDS011;28839;52.404;9.808;2023-07-16T22:50:57;6.10;;;4.32;;
43226;SDS011;28839;52.404;9.808;2023-07-16T22:57:50;6.25;;;5.03;;
43226;SDS011;28839;52.404;9.808;2023-07-16T23:04:44;5.28;;;4.07;;
43226;SDS011;28839;52.404;9.808;2023-07-16T23:11:39;6.55;;;4.25;;
43226;SDS011;28839;52.404;9.808;2023-07-16T23:18:33;8.52;;;4.85;;
43226;SDS011;28839;52.404;9.808;2023-07-16T23:25:27;6.93;;;4.00;;
43226;SDS011;28839;52.404;9.808;2023-07-16T23:32:22;7.95;;;5.05;;
43226;SDS011;28839;52.404;9.808;2023-07-16T23:39:16;8.43;;;4.97;;
43226;SDS011;28839;52.404;9.808;2023-07-16T23:46:10;6.50;;;4.57;;
43226;SDS011;28839;52.404;9.808;2023-07-16T23:53:05;13.55;;;4.78;;
43226;SDS011;28839;52.404;9.808;2023-07-16T23:59:59;13.02;;;4.85;;
